createdAt,value
2019-04-22T00:07:12.510Z,4.63
2019-04-22T00:15:20.249Z,4.60
2019-04-22T00:18:03.317Z,5.07
2019-04-22T00:20:22.951Z,4.33
2019-04-22T00:22:52.013Z,4.93
2019-04-22T00:28:30.574Z,4.67
2019-04-22T00:33:54.731Z,4.93
2019-04-22T00:36:30.163Z,5.60
2019-04-22T00:39:03.377Z,5.03
2019-04-22T00:41:29.775Z,4.93
2019-04-22T00:44:02.868Z,5.20
2019-04-22T00:47:16.374Z,4.33
2019-04-22T00:52:16.115Z,4.57
2019-04-22T00:54:35.754Z,3.72
2019-04-22T00:57:15.380Z,4.40
2019-04-22T01:02:46.169Z,4.10
2019-04-22T01:05:15.179Z,3.70
2019-04-22T01:07:43.523Z,4.73
2019-04-22T01:10:14.261Z,4.20
2019-04-22T01:12:46.757Z,4.20
2019-04-22T01:15:23.750Z,4.57
2019-04-22T01:17:52.545Z,4.27
2019-04-22T01:23:10.913Z,4.00
2019-04-22T01:26:16.125Z,4.17
2019-04-22T01:34:54.955Z,3.80
2019-04-22T01:37:28.879Z,3.93
2019-04-22T01:40:04.742Z,4.30
2019-04-22T01:43:03.807Z,3.70
2019-04-22T01:45:36.302Z,3.50
2019-04-22T01:47:57.896Z,4.40
2019-04-22T01:51:00.886Z,3.93
2019-04-22T01:53:42.781Z,3.93
2019-04-22T01:56:16.283Z,3.90
2019-04-22T01:58:33.239Z,3.50
2019-04-22T02:01:18.787Z,4.27
2019-04-22T02:03:46.752Z,4.33
2019-04-22T02:14:30.340Z,3.97
2019-04-22T02:19:30.495Z,3.70
2019-04-22T02:21:55.928Z,3.87
2019-04-22T02:27:32.797Z,3.57
2019-04-22T02:36:29.768Z,4.20
2019-04-22T02:39:12.213Z,4.80
2019-04-22T02:44:42.207Z,3.47
2019-04-22T02:55:00.382Z,4.03
2019-04-22T02:57:30.095Z,3.50
2019-04-22T02:59:57.118Z,3.80
2019-04-22T03:02:28.728Z,3.73
2019-04-22T03:05:00.864Z,4.17
2019-04-22T03:10:09.979Z,4.13
2019-04-22T03:15:11.602Z,3.50
2019-04-22T03:28:44.293Z,3.77
2019-04-22T03:43:09.208Z,3.70
2019-04-22T03:48:04.680Z,3.40
2019-04-22T03:50:30.863Z,3.80
2019-04-22T03:52:56.123Z,3.73
2019-04-22T03:55:23.034Z,3.30
2019-04-22T03:58:10.639Z,3.50
2019-04-22T04:03:12.072Z,3.70
2019-04-22T04:05:54.093Z,3.40
2019-04-22T04:08:26.866Z,3.30
2019-04-22T04:10:47.981Z,3.40
2019-04-22T04:13:17.566Z,3.80
2019-04-22T04:18:56.094Z,3.53
2019-04-22T04:21:26.814Z,3.80
2019-04-22T04:24:02.958Z,3.93
2019-04-22T04:26:30.808Z,3.80
2019-04-22T04:31:25.139Z,3.50
2019-04-22T04:38:54.533Z,3.87
2019-04-22T04:41:42.971Z,3.50
2019-04-22T04:44:03.764Z,3.90
2019-04-22T04:54:14.964Z,3.43
2019-04-22T04:56:36.442Z,3.47
2019-04-22T04:59:28.270Z,3.83
2019-04-22T05:01:40.246Z,3.30
2019-04-22T05:04:28.214Z,3.60
2019-04-22T05:09:26.053Z,3.67
2019-04-22T05:12:01.921Z,3.70
2019-04-22T05:14:28.929Z,3.87
2019-04-22T05:22:40.009Z,4.23
2019-04-22T05:25:19.720Z,3.47
2019-04-22T05:30:23.684Z,3.57
2019-04-22T05:32:43.001Z,3.23
2019-04-22T05:35:14.576Z,3.00
2019-04-22T05:37:50.264Z,3.53
2019-04-22T05:40:20.075Z,3.23
2019-04-22T05:42:53.102Z,3.30
2019-04-22T05:48:38.066Z,3.20
2019-04-22T05:51:03.715Z,2.77
2019-04-22T05:56:37.551Z,3.00
2019-04-22T05:58:58.588Z,3.00
2019-04-22T06:03:58.795Z,3.03
2019-04-22T06:06:51.600Z,3.00
2019-04-22T06:12:26.903Z,3.50
2019-04-22T06:18:09.340Z,3.07
2019-04-22T06:21:11.518Z,2.57
2019-04-22T06:23:49.227Z,3.00
2019-04-22T06:26:26.913Z,2.63
2019-04-22T06:29:01.645Z,3.20
2019-04-22T06:31:24.485Z,3.03
2019-04-22T06:33:48.358Z,2.90
2019-04-22T06:36:26.301Z,3.13
2019-04-22T06:41:40.263Z,3.17
2019-04-22T06:47:38.000Z,2.70
2019-04-22T06:49:48.264Z,3.50
2019-04-22T06:52:19.700Z,2.60
2019-04-22T06:54:54.242Z,3.23
2019-04-22T06:57:25.355Z,3.07
2019-04-22T07:03:13.734Z,2.90
2019-04-22T07:08:34.660Z,2.90
2019-04-22T07:13:45.295Z,3.10
2019-04-22T07:16:13.728Z,3.03
2019-04-22T07:18:45.056Z,2.83
2019-04-22T07:21:27.184Z,2.83
2019-04-22T07:24:17.855Z,3.27
2019-04-22T07:26:25.146Z,3.10
2019-04-22T07:31:51.020Z,3.27
2019-04-22T07:34:19.441Z,3.27
2019-04-22T07:42:52.106Z,3.30
2019-04-22T07:50:49.377Z,3.83
2019-04-22T07:53:14.373Z,3.80
2019-04-22T07:55:38.109Z,3.17
2019-04-22T08:04:21.658Z,3.50
2019-04-22T08:06:24.226Z,4.00
2019-04-22T08:09:01.908Z,4.00
2019-04-22T08:11:46.580Z,4.00
2019-04-22T08:14:00.213Z,4.40
2019-04-22T08:16:28.438Z,3.27
2019-04-22T08:19:04.308Z,4.87
2019-04-22T08:21:29.984Z,4.33
2019-04-22T08:24:01.362Z,4.10
2019-04-22T08:26:35.946Z,4.97
2019-04-22T08:29:06.803Z,4.00
2019-04-22T08:34:06.334Z,4.47
2019-04-22T08:36:41.006Z,4.67
2019-04-22T08:39:31.166Z,4.60
2019-04-22T08:53:10.897Z,3.73
2019-04-22T08:58:53.714Z,3.57
2019-04-22T09:01:05.275Z,3.30
2019-04-22T09:03:30.557Z,2.83
2019-04-22T09:06:15.310Z,2.97
2019-04-22T09:08:45.642Z,3.00
2019-04-22T09:11:18.453Z,3.03
2019-04-22T09:13:45.326Z,3.03
2019-04-22T09:16:14.666Z,2.70
2019-04-22T09:18:40.966Z,2.73
2019-04-22T09:21:18.750Z,3.37
2019-04-22T09:23:44.566Z,2.60
2019-04-22T09:26:36.146Z,3.00
2019-04-22T09:31:37.194Z,2.10
2019-04-22T09:34:11.964Z,2.17
2019-04-22T09:36:44.309Z,2.70
2019-04-22T09:42:17.402Z,2.23
2019-04-22T09:50:20.844Z,2.03
2019-04-22T09:52:50.911Z,2.33
2019-04-22T09:57:46.310Z,2.53
2019-04-22T10:00:15.467Z,2.40
2019-04-22T10:05:21.174Z,2.40
2019-04-22T10:07:54.466Z,2.40
2019-04-22T10:10:35.252Z,2.10
2019-04-22T10:12:46.759Z,2.23
2019-04-22T10:15:23.361Z,1.25
2019-04-22T10:18:09.359Z,1.17
2019-04-22T10:20:26.932Z,1.10
2019-04-22T10:22:57.423Z,1.00
2019-04-22T10:25:25.230Z,1.33
2019-04-22T10:28:01.621Z,1.40
2019-04-22T10:30:39.130Z,1.40
2019-04-22T10:33:00.861Z,1.37
2019-04-22T10:35:15.498Z,1.67
2019-04-22T10:37:42.761Z,1.40
2019-04-22T10:46:28.385Z,1.32
2019-04-22T10:49:00.014Z,1.67
2019-04-22T10:51:30.769Z,1.40
2019-04-22T10:56:36.938Z,1.90
2019-04-22T10:59:06.920Z,1.73
2019-04-22T11:01:38.504Z,1.50
2019-04-22T11:04:07.285Z,1.50
2019-04-22T11:09:12.490Z,1.87
2019-04-22T11:11:53.734Z,1.70
2019-04-22T11:14:14.871Z,1.63
2019-04-22T11:16:45.593Z,1.60
2019-04-22T11:24:26.665Z,1.65
2019-04-22T11:26:57.061Z,2.02
2019-04-22T11:29:27.892Z,1.70
2019-04-22T11:32:00.032Z,2.13
2019-04-22T11:40:06.904Z,1.90
2019-04-22T11:42:32.306Z,2.20
2019-04-22T11:45:03.548Z,2.02
2019-04-22T11:47:33.342Z,2.13
2019-04-22T11:53:13.025Z,2.10
2019-04-22T12:01:26.702Z,2.10
2019-04-22T12:03:58.002Z,1.87
2019-04-22T12:06:28.217Z,2.20
2019-04-22T12:08:59.588Z,1.85
2019-04-22T12:14:25.672Z,2.10
2019-04-22T12:19:46.268Z,2.00
2019-04-22T12:22:15.656Z,1.98
2019-04-22T12:28:01.168Z,1.93
2019-04-22T12:38:47.700Z,1.77
2019-04-22T12:41:17.925Z,1.80
2019-04-22T12:43:49.288Z,1.50
2019-04-22T12:46:20.379Z,1.70
2019-04-22T12:48:50.058Z,1.45
2019-04-22T12:51:20.822Z,1.50
2019-04-22T12:53:50.900Z,1.83
2019-04-22T12:56:21.775Z,1.75
2019-04-22T12:58:51.696Z,1.67
2019-04-22T13:01:22.060Z,1.70
2019-04-22T13:03:52.075Z,1.83
2019-04-22T13:06:23.661Z,1.95
2019-04-22T13:08:54.637Z,1.60
2019-04-22T13:11:30.290Z,1.63
2019-04-22T13:16:31.286Z,1.43
2019-04-22T13:19:05.729Z,1.75
2019-04-22T13:21:46.811Z,1.63
2019-04-22T13:24:28.082Z,1.77
2019-04-22T13:26:57.400Z,1.60
2019-04-22T13:29:28.423Z,1.63
2019-04-22T13:31:58.599Z,1.70
2019-04-22T13:34:34.820Z,1.33
2019-04-22T13:37:01.163Z,1.90
2019-04-22T13:39:31.299Z,1.57
2019-04-22T13:42:05.623Z,1.45
2019-04-22T13:44:33.577Z,1.40
2019-04-22T13:47:19.716Z,1.52
2019-04-22T13:50:31.325Z,1.45
2019-04-22T13:55:45.469Z,1.37
2019-04-22T13:58:02.554Z,1.40
2019-04-22T14:03:41.616Z,2.10
2019-04-22T14:06:13.194Z,2.20
2019-04-22T14:08:43.165Z,2.80
2019-04-22T14:11:41.593Z,6.57
2019-04-22T14:14:02.950Z,4.15
2019-04-22T14:16:35.158Z,3.63
2019-04-22T14:19:05.653Z,2.62
2019-04-22T14:21:36.796Z,2.27
2019-04-22T14:27:27.920Z,2.17
2019-04-22T14:29:47.244Z,1.50
2019-04-22T14:32:21.807Z,1.70
2019-04-22T14:37:38.422Z,2.60
2019-04-22T14:46:31.964Z,3.63
2019-04-22T14:48:57.207Z,2.12
2019-04-22T14:51:20.728Z,2.02
2019-04-22T14:53:56.562Z,1.85
2019-04-22T14:56:08.525Z,1.65
2019-04-22T14:58:38.322Z,2.20
2019-04-22T15:01:08.595Z,2.10
2019-04-22T15:03:42.000Z,2.02
2019-04-22T15:06:22.291Z,4.70
2019-04-22T15:08:54.486Z,2.50
2019-04-22T15:11:23.315Z,1.85
2019-04-22T15:13:53.525Z,2.20
2019-04-22T15:16:42.665Z,1.95
2019-04-22T15:22:14.739Z,1.63
2019-04-22T15:25:03.076Z,1.75
2019-04-22T15:27:33.193Z,2.00
2019-04-22T15:32:51.733Z,1.32
2019-04-22T15:35:41.070Z,1.53
2019-04-22T15:38:11.398Z,1.83
2019-04-22T15:41:02.738Z,1.70
2019-04-22T15:46:07.845Z,1.70
2019-04-22T15:48:37.761Z,1.70
2019-04-22T15:51:08.818Z,1.60
2019-04-22T15:53:39.845Z,1.50
2019-04-22T15:56:10.625Z,1.90
2019-04-22T15:58:41.885Z,1.70
2019-04-22T16:01:19.297Z,2.00
2019-04-22T16:11:49.842Z,1.60
2019-04-22T16:14:23.896Z,1.50
2019-04-22T16:16:52.209Z,1.70
2019-04-22T16:19:23.255Z,1.70
2019-04-22T16:21:59.406Z,1.60
2019-04-22T16:24:43.005Z,1.80
2019-04-22T16:27:32.141Z,1.50
2019-04-22T16:30:03.645Z,1.60
2019-04-22T16:35:22.566Z,1.80
2019-04-22T16:37:52.710Z,1.50
2019-04-22T16:40:22.826Z,1.80
2019-04-22T16:42:58.302Z,1.80
2019-04-22T16:45:25.377Z,1.47
2019-04-22T16:47:55.625Z,1.67
2019-04-22T16:50:41.230Z,1.60
2019-04-22T16:53:10.118Z,1.53
2019-04-22T16:55:41.007Z,1.53
2019-04-22T16:58:12.677Z,1.90
2019-04-22T17:01:22.759Z,1.60
2019-04-22T17:04:12.377Z,1.60
2019-04-22T17:09:32.120Z,1.83
2019-04-22T17:12:21.781Z,1.53
2019-04-22T17:14:56.861Z,1.77
2019-04-22T17:22:51.763Z,1.80
2019-04-22T17:25:22.471Z,2.27
2019-04-22T17:27:52.202Z,1.83
2019-04-22T17:30:24.675Z,1.83
2019-04-22T17:32:54.758Z,1.60
2019-04-22T17:39:18.429Z,1.67
2019-04-22T17:41:52.676Z,1.67
2019-04-22T17:47:44.552Z,1.47
2019-04-22T17:50:31.960Z,1.40
2019-04-22T17:53:02.680Z,1.60
2019-04-22T17:58:20.769Z,1.80
2019-04-22T18:01:02.769Z,1.30
2019-04-22T18:03:17.567Z,1.70
2019-04-22T18:09:19.365Z,1.83
2019-04-22T18:11:51.233Z,2.50
2019-04-22T18:19:53.222Z,2.13
2019-04-22T18:22:38.164Z,2.00
2019-04-22T18:28:00.719Z,1.67
2019-04-22T18:30:30.138Z,1.77
2019-04-22T18:33:07.499Z,1.70
2019-04-22T18:35:55.278Z,1.80
2019-04-22T18:38:42.253Z,1.93
2019-04-22T18:41:03.526Z,1.70
2019-04-22T18:43:33.937Z,1.87
2019-04-22T18:46:11.308Z,1.60
2019-04-22T18:48:53.989Z,1.70
2019-04-22T18:54:36.262Z,1.70
2019-04-22T18:57:07.765Z,2.03
2019-04-22T18:59:28.068Z,1.60
2019-04-22T19:01:52.298Z,2.50
2019-04-22T19:04:36.766Z,1.80
2019-04-22T19:07:20.356Z,1.53
2019-04-22T19:09:59.727Z,1.80
2019-04-22T19:15:05.467Z,1.93
2019-04-22T19:20:24.027Z,2.30
2019-04-22T19:22:51.790Z,1.50
2019-04-22T19:25:21.265Z,1.93
2019-04-22T19:27:53.622Z,1.63
2019-04-22T19:30:22.324Z,1.80
2019-04-22T19:33:02.850Z,1.90
2019-04-22T19:35:22.875Z,1.70
2019-04-22T19:37:52.234Z,1.53
2019-04-22T19:43:32.819Z,1.63
2019-04-22T19:46:08.857Z,1.70
2019-04-22T19:48:45.600Z,2.40
2019-04-22T19:51:15.806Z,1.70
2019-04-22T19:53:47.030Z,2.00
2019-04-22T19:56:11.608Z,2.13
2019-04-22T19:58:42.709Z,2.03
2019-04-22T20:04:41.572Z,1.60
2019-04-22T20:10:20.614Z,1.70
2019-04-22T20:13:08.095Z,1.73
2019-04-22T20:15:29.273Z,1.50
2019-04-22T20:20:46.537Z,1.80
2019-04-22T20:23:05.221Z,2.17
2019-04-22T20:25:40.842Z,1.60
2019-04-22T20:28:15.762Z,1.60
2019-04-22T20:31:25.328Z,1.70
2019-04-22T20:33:56.349Z,1.73
2019-04-22T20:39:20.370Z,2.00
2019-04-22T20:41:53.580Z,2.07
2019-04-22T20:44:32.260Z,1.53
2019-04-22T20:46:48.877Z,2.13
2019-04-22T20:54:28.960Z,2.10
2019-04-22T20:56:54.986Z,1.97
2019-04-22T20:59:33.386Z,1.80
2019-04-22T21:02:03.635Z,1.90
2019-04-22T21:04:24.750Z,2.00
2019-04-22T21:07:03.766Z,1.67
2019-04-22T21:09:37.927Z,2.20
2019-04-22T21:12:07.575Z,2.00
2019-04-22T21:14:36.121Z,1.77
2019-04-22T21:20:10.000Z,1.70
2019-04-22T21:22:32.443Z,1.90
2019-04-22T21:24:57.320Z,1.90
2019-04-22T21:27:40.672Z,2.23
2019-04-22T21:30:00.053Z,1.70
2019-04-22T21:35:40.430Z,1.47
2019-04-22T21:38:04.548Z,1.37
2019-04-22T21:43:30.069Z,2.00
2019-04-22T21:46:04.847Z,1.70
2019-04-22T21:48:37.182Z,1.57
2019-04-22T21:51:08.708Z,1.70
2019-04-22T21:53:58.682Z,1.90
2019-04-22T21:56:40.828Z,1.80
2019-04-22T21:59:15.634Z,1.90
2019-04-22T22:01:53.981Z,2.07
2019-04-22T22:04:20.725Z,1.70
2019-04-22T22:06:42.561Z,1.80
2019-04-22T22:11:57.787Z,1.60
2019-04-22T22:14:31.689Z,1.30
2019-04-22T22:16:56.466Z,1.57
2019-04-22T22:25:11.496Z,1.63
2019-04-22T22:27:41.118Z,1.60
2019-04-22T22:30:31.606Z,1.50
2019-04-22T22:32:40.216Z,1.40
2019-04-22T22:35:16.474Z,1.20
2019-04-22T22:37:44.996Z,1.57
2019-04-22T22:40:03.699Z,1.50
2019-04-22T22:42:35.977Z,1.40
2019-04-22T22:45:07.849Z,1.47
2019-04-22T22:47:44.349Z,1.70
2019-04-22T22:50:20.385Z,1.23
2019-04-22T22:53:19.207Z,1.57
2019-04-22T22:55:21.705Z,1.33
2019-04-22T22:58:01.336Z,1.33
2019-04-22T23:05:58.928Z,1.50
2019-04-22T23:08:45.945Z,1.73
2019-04-22T23:11:01.664Z,1.77
2019-04-22T23:13:33.600Z,1.43
2019-04-22T23:15:50.733Z,1.57
2019-04-22T23:18:10.027Z,1.50
2019-04-22T23:20:47.278Z,1.50
2019-04-22T23:23:33.265Z,1.70
2019-04-22T23:28:50.623Z,1.37
2019-04-22T23:31:35.490Z,1.50
2019-04-22T23:37:23.189Z,1.50
2019-04-22T23:40:11.801Z,1.30
2019-04-22T23:42:41.031Z,2.17
2019-04-22T23:45:02.126Z,1.47
2019-04-22T23:52:53.066Z,1.80
2019-04-22T23:55:20.446Z,1.70
2019-04-22T23:57:56.747Z,1.50
